createdAt,value
2016-12-20T01:50:09.601Z,85.53
2016-12-20T01:51:09.275Z,85.36
2016-12-20T01:52:11.221Z,85.87
2016-12-20T01:53:09.263Z,86.57
2016-12-20T01:54:08.566Z,87.31
2016-12-20T01:55:09.356Z,85.92
2016-12-20T01:56:08.940Z,85.96
2016-12-20T01:57:08.602Z,86.00
2016-12-20T01:58:09.411Z,86.04
2016-12-20T01:59:08.880Z,85.84
2016-12-20T02:00:08.729Z,85.54
2016-12-20T02:01:10.389Z,86.18
2016-12-20T02:02:08.582Z,86.21
2016-12-20T02:03:08.970Z,85.90
2016-12-20T02:04:08.696Z,86.29
2016-12-20T02:05:09.640Z,86.49
2016-12-20T02:06:09.561Z,85.71
2016-12-20T02:07:09.300Z,85.91
2016-12-20T02:08:09.687Z,85.52
2016-12-20T02:09:09.409Z,85.67
2016-12-20T02:10:09.609Z,86.23
2016-12-20T02:11:08.745Z,85.69
2016-12-20T02:12:09.552Z,85.87
2016-12-20T02:13:09.026Z,86.40
2016-12-20T02:14:09.313Z,86.62
2016-12-20T02:15:10.075Z,86.56
2016-12-20T02:16:09.653Z,87.14
2016-12-20T02:17:09.486Z,86.49
2016-12-20T02:18:09.170Z,85.67
2016-12-20T02:19:09.108Z,85.58
2016-12-20T02:20:08.723Z,85.39
2016-12-20T02:21:09.554Z,85.59
2016-12-20T02:22:09.268Z,86.06
2016-12-20T02:23:08.811Z,86.69
2016-12-20T02:24:09.098Z,86.55
2016-12-20T02:25:14.399Z,85.97
2016-12-20T02:26:09.010Z,86.27
2016-12-20T02:27:08.774Z,86.53
2016-12-20T02:28:09.402Z,86.19
2016-12-20T02:29:09.527Z,86.35
2016-12-20T02:30:09.285Z,86.38
2016-12-20T02:31:09.437Z,86.29
2016-12-20T02:32:09.316Z,85.33
2016-12-20T02:33:09.030Z,85.67
2016-12-20T02:34:08.817Z,85.52
2016-12-20T02:35:08.651Z,85.40
2016-12-20T02:36:09.586Z,85.84
2016-12-20T02:37:09.452Z,86.77
2016-12-20T02:38:08.780Z,86.65
2016-12-20T02:39:09.649Z,86.63
2016-12-20T02:40:09.344Z,86.79
2016-12-20T02:41:09.448Z,86.83
2016-12-20T02:42:09.128Z,86.35
2016-12-20T02:43:08.989Z,85.92
2016-12-20T02:44:09.711Z,86.70
2016-12-20T02:45:09.575Z,86.78
2016-12-20T02:46:09.444Z,86.14
2016-12-20T02:47:09.914Z,86.38
2016-12-20T02:48:08.947Z,85.91
2016-12-20T02:49:08.643Z,86.07
2016-12-20T02:50:09.927Z,85.21
2016-12-20T02:51:08.561Z,85.86
2016-12-20T02:52:09.348Z,86.16
2016-12-20T02:53:09.046Z,86.08
2016-12-20T02:54:08.799Z,86.14
2016-12-20T02:55:09.672Z,86.38
2016-12-20T02:56:09.435Z,86.33
2016-12-20T02:57:09.085Z,86.52
2016-12-20T02:58:09.208Z,85.61
2016-12-20T02:59:09.196Z,86.10
2016-12-20T03:00:09.126Z,85.62
2016-12-20T03:01:08.901Z,85.29
2016-12-20T03:02:08.532Z,85.04
2016-12-20T03:03:09.409Z,85.10
2016-12-20T03:04:09.220Z,84.85
2016-12-20T03:05:09.042Z,84.32
2016-12-20T03:06:09.135Z,84.40
2016-12-20T03:07:09.770Z,84.28
2016-12-20T03:08:09.600Z,84.68
2016-12-20T03:09:09.084Z,85.31
2016-12-20T03:10:09.217Z,85.69
2016-12-20T03:11:09.123Z,85.83
2016-12-20T03:12:08.791Z,85.98
2016-12-20T03:13:09.735Z,86.16
2016-12-20T03:14:09.416Z,85.89
2016-12-20T03:15:09.183Z,86.32
2016-12-20T03:16:09.024Z,85.60
2016-12-20T03:17:08.697Z,85.69
2016-12-20T03:18:09.454Z,85.76
2016-12-20T03:19:09.114Z,85.62
2016-12-20T03:20:09.169Z,86.20
2016-12-20T03:21:09.028Z,87.05
2016-12-20T03:22:09.549Z,86.12
2016-12-20T03:23:09.416Z,85.20
2016-12-20T03:24:09.175Z,85.23
2016-12-20T03:25:09.240Z,84.52
2016-12-20T03:26:08.914Z,84.56
2016-12-20T03:27:08.822Z,84.80
2016-12-20T03:28:08.727Z,84.91
2016-12-20T03:29:09.381Z,85.09
2016-12-20T03:30:10.342Z,84.59
2016-12-20T03:31:09.296Z,85.11
2016-12-20T03:32:09.421Z,85.50
2016-12-20T03:33:09.263Z,85.83
2016-12-20T03:34:09.089Z,85.14
2016-12-20T03:35:08.926Z,85.13
2016-12-20T03:36:08.766Z,84.39
2016-12-20T03:37:09.560Z,84.60
2016-12-20T03:38:09.255Z,85.22
2016-12-20T03:39:09.039Z,84.82
2016-12-20T03:40:08.861Z,84.87
2016-12-20T03:41:08.931Z,84.97
2016-12-20T03:42:09.016Z,84.49
2016-12-20T03:43:08.918Z,84.01
2016-12-20T03:44:08.511Z,84.52
2016-12-20T03:45:09.535Z,85.24
2016-12-20T03:46:09.429Z,84.99
2016-12-20T03:47:09.905Z,85.77
2016-12-20T03:48:08.827Z,84.79
2016-12-20T03:49:09.689Z,84.72
2016-12-20T03:50:09.579Z,84.88
2016-12-20T03:51:09.667Z,84.51
2016-12-20T03:52:09.501Z,85.12
2016-12-20T03:53:09.263Z,85.05
2016-12-20T03:54:09.003Z,84.77
2016-12-20T03:55:09.053Z,84.86
2016-12-20T03:56:08.879Z,84.86
2016-12-20T03:57:10.308Z,85.14
2016-12-20T03:58:09.351Z,84.54
2016-12-20T03:59:09.244Z,84.57
2016-12-20T04:00:09.039Z,84.92
2016-12-20T04:01:08.914Z,84.79
2016-12-20T04:02:08.618Z,83.34
2016-12-20T04:03:09.554Z,82.32
2016-12-20T04:04:09.586Z,83.48
2016-12-20T04:05:09.732Z,84.62
2016-12-20T04:06:09.744Z,84.90
2016-12-20T04:07:09.243Z,86.07
2016-12-20T04:08:08.903Z,86.08
2016-12-20T04:09:08.651Z,85.45
2016-12-20T04:10:09.528Z,85.60
2016-12-20T04:11:09.365Z,86.59
2016-12-20T04:12:09.110Z,85.59
2016-12-20T04:13:09.076Z,85.14
2016-12-20T04:14:08.819Z,84.67
2016-12-20T04:15:09.480Z,84.74
2016-12-20T04:16:09.611Z,84.58
2016-12-20T04:17:09.404Z,84.34
2016-12-20T04:18:09.203Z,84.86
2016-12-20T04:19:08.987Z,84.72
2016-12-20T04:20:08.834Z,84.39
2016-12-20T04:21:09.841Z,84.72
2016-12-20T04:22:09.504Z,84.41
2016-12-20T04:23:09.408Z,84.91
2016-12-20T04:24:09.143Z,84.74
2016-12-20T04:25:08.952Z,84.70
2016-12-20T04:26:09.468Z,84.61
2016-12-20T04:27:09.619Z,86.16
2016-12-20T04:28:09.190Z,85.81
2016-12-20T04:29:08.791Z,85.26
2016-12-20T04:30:09.725Z,85.19
2016-12-20T04:31:09.692Z,85.06
2016-12-20T04:32:10.018Z,85.08
2016-12-20T04:33:08.652Z,84.20
2016-12-20T04:34:09.252Z,85.52
2016-12-20T04:35:09.282Z,86.53
2016-12-20T04:36:09.439Z,85.96
2016-12-20T04:37:09.599Z,86.04
2016-12-20T04:38:09.565Z,85.19
2016-12-20T04:39:09.295Z,85.38
2016-12-20T04:40:09.152Z,84.87
2016-12-20T04:41:10.109Z,85.55
2016-12-20T04:42:08.638Z,86.47
2016-12-20T04:43:09.571Z,85.84
2016-12-20T04:44:09.207Z,86.13
2016-12-20T04:45:08.854Z,86.36
2016-12-20T04:46:08.913Z,86.06
2016-12-20T04:47:09.757Z,85.41
2016-12-20T04:48:09.501Z,84.95
2016-12-20T04:49:09.209Z,85.40
2016-12-20T04:50:09.134Z,85.53
2016-12-20T04:51:08.972Z,84.16
2016-12-20T04:52:08.819Z,84.37
2016-12-20T04:53:08.656Z,84.45
2016-12-20T04:54:09.461Z,83.79
2016-12-20T04:55:09.259Z,83.95
2016-12-20T04:56:08.966Z,84.10
2016-12-20T04:57:08.813Z,84.24
2016-12-20T04:58:09.601Z,83.13
2016-12-20T04:59:09.305Z,83.20
2016-12-20T05:00:08.959Z,83.70
2016-12-20T05:01:08.702Z,83.19
2016-12-20T05:02:09.952Z,83.29
2016-12-20T05:03:08.827Z,83.87
2016-12-20T05:04:09.624Z,83.88
2016-12-20T05:05:09.399Z,83.72
2016-12-20T05:06:09.093Z,83.59
2016-12-20T05:07:09.123Z,83.85
2016-12-20T05:08:08.624Z,83.36
2016-12-20T05:09:09.311Z,82.55
2016-12-20T05:10:09.961Z,83.10
2016-12-20T05:11:08.327Z,83.72
2016-12-20T05:12:09.036Z,83.81
2016-12-20T05:13:08.743Z,83.55
2016-12-20T05:14:09.266Z,83.85
2016-12-20T05:15:09.172Z,83.60
2016-12-20T05:16:08.881Z,83.33
2016-12-20T05:17:09.143Z,83.07
2016-12-20T05:18:08.790Z,82.53
2016-12-20T05:19:09.605Z,82.91
2016-12-20T05:20:10.613Z,83.62
2016-12-20T05:21:09.205Z,82.04
2016-12-20T05:22:08.988Z,82.53
2016-12-20T05:23:08.867Z,82.57
2016-12-20T05:24:09.512Z,84.12
2016-12-20T05:25:12.158Z,83.88
2016-12-20T05:26:09.718Z,84.04
2016-12-20T05:27:09.674Z,83.30
2016-12-20T05:28:14.838Z,83.90
2016-12-20T05:29:09.634Z,83.58
2016-12-20T05:30:09.578Z,83.53
2016-12-20T05:31:09.216Z,83.91
2016-12-20T05:32:09.444Z,83.58
2016-12-20T05:33:09.120Z,83.65
2016-12-20T05:34:08.660Z,83.43
2016-12-20T05:35:09.540Z,84.30
2016-12-20T05:36:09.764Z,84.10
2016-12-20T05:37:09.694Z,83.39
2016-12-20T05:38:09.197Z,82.83
2016-12-20T05:39:08.718Z,82.45
2016-12-20T05:40:09.609Z,82.23
2016-12-20T05:41:09.347Z,81.98
2016-12-20T05:42:09.116Z,82.98
2016-12-20T05:43:09.335Z,82.41
2016-12-20T05:44:10.368Z,82.94
2016-12-20T05:45:09.022Z,83.23
2016-12-20T05:46:08.716Z,82.64
2016-12-20T05:47:09.831Z,82.39
2016-12-20T05:48:09.787Z,83.79
2016-12-20T05:49:09.362Z,83.56
2016-12-20T05:50:09.219Z,84.17
2016-12-20T05:51:09.056Z,84.06
2016-12-20T05:52:09.065Z,83.81
2016-12-20T05:53:10.496Z,83.08
2016-12-20T05:54:08.832Z,82.91
2016-12-20T05:55:09.678Z,83.87
2016-12-20T05:56:09.385Z,83.59
2016-12-20T05:57:09.338Z,83.17
2016-12-20T05:58:09.004Z,83.96
2016-12-20T05:59:10.278Z,83.56
2016-12-20T06:00:09.063Z,83.43
2016-12-20T06:01:08.680Z,84.23
2016-12-20T06:02:09.700Z,84.01
2016-12-20T06:03:09.336Z,84.66
2016-12-20T06:04:09.178Z,83.12
2016-12-20T06:05:09.090Z,82.78
2016-12-20T06:06:09.548Z,83.52
2016-12-20T06:07:09.645Z,84.56
2016-12-20T06:08:09.324Z,84.31
2016-12-20T06:09:09.229Z,85.04
2016-12-20T06:10:08.775Z,83.96
2016-12-20T06:11:08.868Z,85.12
2016-12-20T06:12:09.454Z,85.10
2016-12-20T06:13:09.060Z,84.08
2016-12-20T06:14:09.064Z,83.74
2016-12-20T06:15:09.098Z,84.40
2016-12-20T06:16:08.723Z,84.98
2016-12-20T06:17:09.613Z,84.77
2016-12-20T06:18:09.129Z,84.74
2016-12-20T06:19:08.847Z,85.02
2016-12-20T06:20:10.009Z,85.56
2016-12-20T06:21:09.021Z,85.10
2016-12-20T06:22:08.731Z,84.57
2016-12-20T06:23:09.780Z,83.55
2016-12-20T06:24:09.457Z,83.21
2016-12-20T06:25:09.882Z,82.64
2016-12-20T06:26:09.765Z,82.92
2016-12-20T06:27:09.753Z,82.64
2016-12-20T06:28:10.644Z,83.41
2016-12-20T06:29:09.399Z,84.13
2016-12-20T06:30:09.182Z,84.33
2016-12-20T06:31:08.860Z,83.40
2016-12-20T06:32:09.769Z,83.71
2016-12-20T06:33:09.657Z,84.21
2016-12-20T06:34:09.427Z,83.84
2016-12-20T06:35:09.702Z,84.35
2016-12-20T06:36:09.762Z,83.92
2016-12-20T06:37:10.404Z,84.68
2016-12-20T06:38:09.289Z,83.67
2016-12-20T06:39:09.697Z,83.27
2016-12-20T06:40:09.471Z,83.46
2016-12-20T06:41:09.502Z,83.86
2016-12-20T06:42:09.459Z,84.16
2016-12-20T06:43:09.116Z,84.59
2016-12-20T06:44:09.463Z,84.58
2016-12-20T06:45:09.404Z,85.16
2016-12-20T06:46:09.301Z,84.69
2016-12-20T06:47:08.983Z,84.65
2016-12-20T06:48:08.919Z,84.44
2016-12-20T06:49:08.473Z,83.94
2016-12-20T06:50:09.189Z,83.40
2016-12-20T06:51:08.706Z,83.61
2016-12-20T06:52:09.658Z,82.82
2016-12-20T06:53:09.771Z,83.43
2016-12-20T06:54:09.400Z,83.80
2016-12-20T06:55:09.355Z,83.15
2016-12-20T06:56:09.132Z,82.60
2016-12-20T06:57:08.837Z,83.54
2016-12-20T06:58:08.635Z,84.59
2016-12-20T06:59:10.191Z,84.06
2016-12-20T07:00:09.222Z,84.22
2016-12-20T07:01:10.617Z,84.99
2016-12-20T07:02:09.598Z,85.05
2016-12-20T07:03:09.342Z,84.70
2016-12-20T07:04:09.024Z,85.05
2016-12-20T07:05:10.333Z,83.88
2016-12-20T07:06:10.050Z,83.41
2016-12-20T07:07:08.641Z,83.57
2016-12-20T07:08:09.727Z,82.96
2016-12-20T07:09:09.471Z,83.77
2016-12-20T07:10:09.089Z,83.59
2016-12-20T07:11:14.626Z,83.19
2016-12-20T07:12:09.780Z,83.25
2016-12-20T07:13:09.600Z,83.04
2016-12-20T07:14:09.487Z,83.05
2016-12-20T07:15:09.961Z,83.21
2016-12-20T07:16:08.545Z,83.38
2016-12-20T07:17:09.946Z,83.12
2016-12-20T07:18:08.687Z,82.95
2016-12-20T07:19:09.647Z,83.48
2016-12-20T07:20:09.080Z,84.51
2016-12-20T07:21:09.095Z,84.38
2016-12-20T07:22:08.973Z,83.80
2016-12-20T07:23:08.831Z,83.55
2016-12-20T07:24:08.215Z,83.44
2016-12-20T07:25:09.010Z,83.37
2016-12-20T07:26:08.755Z,83.64
2016-12-20T07:27:09.449Z,83.82
2016-12-20T07:28:09.274Z,82.92
2016-12-20T07:29:08.779Z,82.83
2016-12-20T07:30:09.437Z,82.96
2016-12-20T07:31:09.398Z,82.62
2016-12-20T07:32:08.931Z,82.93
2016-12-20T07:33:08.806Z,82.60
2016-12-20T07:34:10.018Z,81.75
2016-12-20T07:35:08.459Z,82.21
2016-12-20T07:36:09.392Z,82.60
2016-12-20T07:37:09.094Z,82.84
2016-12-20T07:38:09.253Z,83.18
2016-12-20T07:39:08.888Z,83.36
2016-12-20T07:40:08.659Z,83.58
2016-12-20T07:41:09.228Z,83.28
2016-12-20T07:42:08.880Z,82.87
2016-12-20T07:43:08.998Z,83.88
2016-12-20T07:44:09.097Z,83.91
2016-12-20T07:45:08.628Z,83.82
2016-12-20T07:46:09.391Z,83.45
2016-12-20T07:47:08.714Z,84.49
2016-12-20T07:48:09.649Z,83.49
2016-12-20T07:49:09.511Z,83.22
2016-12-20T07:50:09.256Z,82.98
2016-12-20T07:51:09.910Z,83.34
2016-12-20T07:52:10.437Z,84.17
2016-12-20T07:53:09.140Z,83.61
2016-12-20T07:54:09.608Z,83.41
2016-12-20T07:55:09.275Z,82.96
2016-12-20T07:56:09.912Z,83.35
2016-12-20T07:57:08.630Z,83.83
2016-12-20T07:58:09.627Z,83.04
2016-12-20T07:59:09.423Z,83.55
2016-12-20T08:00:10.311Z,83.67
2016-12-20T08:01:09.298Z,83.62
2016-12-20T08:02:10.247Z,83.28
2016-12-20T08:03:09.241Z,82.96
2016-12-20T08:04:08.870Z,83.26
2016-12-20T08:05:08.600Z,82.85
2016-12-20T08:06:09.581Z,84.47
2016-12-20T08:07:09.287Z,83.44
2016-12-20T08:08:09.733Z,83.61
2016-12-20T08:09:09.449Z,83.07
2016-12-20T08:10:09.437Z,83.77
2016-12-20T08:11:09.099Z,82.59
2016-12-20T08:12:09.012Z,82.60
2016-12-20T08:13:08.921Z,83.08
2016-12-20T08:14:08.597Z,82.34
2016-12-20T08:15:09.563Z,83.83
2016-12-20T08:16:11.178Z,82.63
2016-12-20T08:17:10.594Z,82.91
2016-12-20T08:18:10.081Z,83.94
2016-12-20T08:19:08.993Z,82.43
2016-12-20T08:20:08.272Z,82.99
2016-12-20T08:21:08.744Z,82.99
2016-12-20T08:22:09.212Z,82.36
2016-12-20T08:23:09.173Z,80.94
2016-12-20T08:24:08.811Z,81.92
2016-12-20T08:25:09.367Z,81.66
2016-12-20T08:26:09.844Z,81.60
2016-12-20T08:27:09.062Z,80.99
2016-12-20T08:28:08.432Z,81.02
2016-12-20T08:29:07.711Z,81.24
2016-12-20T08:30:08.986Z,80.98
2016-12-20T08:31:08.118Z,79.80
2016-12-20T08:32:08.106Z,79.42
2016-12-20T08:33:08.096Z,80.84
2016-12-20T08:34:08.475Z,80.50
2016-12-20T08:35:08.724Z,80.45
2016-12-20T08:36:08.968Z,81.77
2016-12-20T08:37:08.138Z,81.91
2016-12-20T08:38:08.817Z,82.16
2016-12-20T08:39:09.059Z,83.02
2016-12-20T08:40:08.030Z,81.66
2016-12-20T08:41:08.130Z,81.78
2016-12-20T08:42:08.131Z,80.88
2016-12-20T08:43:08.234Z,81.11
2016-12-20T08:44:08.402Z,81.08
2016-12-20T08:45:08.812Z,80.79
2016-12-20T08:46:09.092Z,80.86
2016-12-20T08:47:08.163Z,81.16
2016-12-20T08:48:08.068Z,80.61
2016-12-20T08:49:08.115Z,80.54
2016-12-20T08:50:08.008Z,80.58
2016-12-20T08:51:08.129Z,80.90
2016-12-20T08:52:08.440Z,80.19
2016-12-20T08:53:08.373Z,80.29
2016-12-20T08:54:08.215Z,80.42
2016-12-20T08:55:08.019Z,80.91
2016-12-20T08:56:08.160Z,81.76
2016-12-20T08:57:08.117Z,81.13
2016-12-20T08:58:08.309Z,80.97
2016-12-20T08:59:08.549Z,81.26
2016-12-20T09:00:08.751Z,80.78
2016-12-20T09:01:08.801Z,80.52
2016-12-20T09:02:09.101Z,81.01
2016-12-20T09:03:10.855Z,80.48
2016-12-20T09:04:09.196Z,80.29
2016-12-20T09:05:08.503Z,80.60
2016-12-20T09:06:08.574Z,79.34
2016-12-20T09:07:08.734Z,78.86
2016-12-20T09:08:09.085Z,78.91
2016-12-20T09:09:08.179Z,80.62
2016-12-20T09:10:10.472Z,80.05
2016-12-20T09:11:08.879Z,79.57
2016-12-20T09:12:09.027Z,80.10
2016-12-20T09:13:08.306Z,79.05
2016-12-20T09:14:08.510Z,79.08
2016-12-20T09:15:08.492Z,79.21
2016-12-20T09:16:08.490Z,80.01
2016-12-20T09:17:08.785Z,80.45
2016-12-20T09:18:09.174Z,79.52
2016-12-20T09:19:08.328Z,80.28
2016-12-20T09:20:08.834Z,80.67
2016-12-20T09:21:08.958Z,80.03
2016-12-20T09:22:07.875Z,79.44
2016-12-20T09:23:08.987Z,79.14
2016-12-20T09:24:07.775Z,79.30
2016-12-20T09:25:09.071Z,78.76
2016-12-20T09:26:08.285Z,78.12
2016-12-20T09:27:08.572Z,78.35
2016-12-20T09:28:10.733Z,78.70
2016-12-20T09:29:08.570Z,79.89
2016-12-20T09:30:08.985Z,79.79
2016-12-20T09:31:08.191Z,79.64
2016-12-20T09:32:08.854Z,78.87
2016-12-20T09:33:09.093Z,78.83
2016-12-20T09:34:07.794Z,78.71
2016-12-20T09:35:08.023Z,78.50
2016-12-20T09:36:08.183Z,78.58
2016-12-20T09:37:08.282Z,78.87
2016-12-20T09:38:08.199Z,79.35
2016-12-20T09:39:08.907Z,79.26
2016-12-20T09:40:09.240Z,78.74
2016-12-20T09:41:08.111Z,79.27
2016-12-20T09:42:08.252Z,78.78
2016-12-20T09:43:08.241Z,79.32
2016-12-20T09:44:08.504Z,79.53
2016-12-20T09:45:08.941Z,79.46
2016-12-20T09:46:07.835Z,79.11
2016-12-20T09:47:08.212Z,79.51
2016-12-20T09:48:08.172Z,78.97
2016-12-20T09:49:08.588Z,79.73
2016-12-20T09:50:08.517Z,79.91
2016-12-20T09:51:08.910Z,79.41
2016-12-20T09:52:09.256Z,78.61
2016-12-20T09:53:08.215Z,79.05
2016-12-20T09:54:08.067Z,79.84
2016-12-20T09:55:08.293Z,78.52
2016-12-20T09:56:08.269Z,79.24
2016-12-20T09:57:08.543Z,78.85
2016-12-20T09:58:07.716Z,79.13
2016-12-20T09:59:08.752Z,79.75
2016-12-20T10:00:07.935Z,79.11
2016-12-20T10:01:09.163Z,78.68
2016-12-20T10:02:08.297Z,79.28
2016-12-20T10:03:08.260Z,78.76
2016-12-20T10:04:08.247Z,78.74
2016-12-20T10:05:08.265Z,77.78
2016-12-20T10:06:08.270Z,77.86
2016-12-20T10:07:08.275Z,78.39
2016-12-20T10:08:08.647Z,78.60
2016-12-20T10:09:09.118Z,78.22
2016-12-20T10:10:07.975Z,77.64
2016-12-20T10:11:08.679Z,77.90
2016-12-20T10:12:08.519Z,78.32
2016-12-20T10:13:08.560Z,78.45
2016-12-20T10:14:08.490Z,78.47
2016-12-20T10:15:08.663Z,78.23
2016-12-20T10:16:08.575Z,78.52
2016-12-20T10:17:08.981Z,78.47
2016-12-20T10:18:08.347Z,78.37
2016-12-20T10:19:08.314Z,78.81
2016-12-20T10:20:08.251Z,78.50
2016-12-20T10:21:08.366Z,78.75
2016-12-20T10:22:08.350Z,78.91
2016-12-20T10:23:08.668Z,79.03
2016-12-20T10:24:08.613Z,78.87
2016-12-20T10:25:08.595Z,79.68
2016-12-20T10:26:08.668Z,79.58
2016-12-20T10:27:08.023Z,79.82
2016-12-20T10:28:08.287Z,78.75
2016-12-20T10:29:08.511Z,78.38
2016-12-20T10:30:08.788Z,79.90
2016-12-20T10:31:08.878Z,80.18
2016-12-20T10:32:09.011Z,79.08
2016-12-20T10:33:08.653Z,79.48
2016-12-20T10:34:08.590Z,78.69
2016-12-20T10:35:09.001Z,78.83
2016-12-20T10:36:08.396Z,78.44
2016-12-20T10:37:08.268Z,79.68
2016-12-20T10:38:08.228Z,78.64
2016-12-20T10:39:08.316Z,78.67
2016-12-20T10:40:08.616Z,78.22
2016-12-20T10:41:08.649Z,77.93
2016-12-20T10:42:08.588Z,77.72
2016-12-20T10:43:08.665Z,78.13
2016-12-20T10:44:08.553Z,77.44
2016-12-20T10:45:08.449Z,78.45
2016-12-20T10:46:08.510Z,78.33
2016-12-20T10:47:08.461Z,77.75
2016-12-20T10:48:08.575Z,77.93
2016-12-20T10:49:08.632Z,78.33
2016-12-20T10:50:08.430Z,77.68
2016-12-20T10:51:08.327Z,78.14
2016-12-20T10:52:08.460Z,78.02
2016-12-20T10:53:08.424Z,77.56
2016-12-20T10:54:08.359Z,77.50
2016-12-20T10:55:08.355Z,77.97
2016-12-20T10:56:08.684Z,77.62
2016-12-20T10:57:08.585Z,78.54
2016-12-20T10:58:08.694Z,78.49
2016-12-20T10:59:09.094Z,78.72
2016-12-20T11:00:07.840Z,79.37
2016-12-20T11:01:09.048Z,78.93
2016-12-20T11:02:07.917Z,78.12
2016-12-20T11:03:09.335Z,77.61
2016-12-20T11:04:08.493Z,78.62
2016-12-20T11:05:08.324Z,78.50
2016-12-20T11:06:08.723Z,78.35
2016-12-20T11:07:08.635Z,78.48
2016-12-20T11:08:08.989Z,77.66
2016-12-20T11:09:08.117Z,77.10
2016-12-20T11:10:08.073Z,77.32
2016-12-20T11:11:11.252Z,77.80
2016-12-20T11:12:08.426Z,77.85
2016-12-20T11:13:08.743Z,76.99
2016-12-20T11:14:08.968Z,76.97
2016-12-20T11:15:08.164Z,77.62
2016-12-20T11:16:08.010Z,78.29
2016-12-20T11:17:07.974Z,79.28
2016-12-20T11:18:08.011Z,79.62
2016-12-20T11:19:08.315Z,79.45
2016-12-20T11:20:08.712Z,79.08
2016-12-20T11:21:08.586Z,79.28
2016-12-20T11:22:08.743Z,78.74
2016-12-20T11:23:08.709Z,79.73
2016-12-20T11:24:08.944Z,79.76
2016-12-20T11:25:09.322Z,79.77
2016-12-20T11:26:08.398Z,79.90
2016-12-20T11:27:08.720Z,79.60
2016-12-20T11:28:08.695Z,79.60
2016-12-20T11:29:08.403Z,79.03
2016-12-20T11:30:13.623Z,78.43
2016-12-20T11:31:08.757Z,78.59
2016-12-20T11:32:08.845Z,78.66
2016-12-20T11:33:09.074Z,78.67
2016-12-20T11:34:07.977Z,78.29
2016-12-20T11:35:08.396Z,78.39
2016-12-20T11:36:08.727Z,77.97
2016-12-20T11:37:08.739Z,77.80
2016-12-20T11:38:08.920Z,78.55
2016-12-20T11:39:08.845Z,78.37
2016-12-20T11:40:09.076Z,78.53
2016-12-20T11:41:08.362Z,78.16
2016-12-20T11:42:08.370Z,78.79
2016-12-20T11:43:08.848Z,79.17
2016-12-20T11:44:09.032Z,78.86
2016-12-20T11:45:07.889Z,78.95
2016-12-20T11:46:09.013Z,79.05
2016-12-20T11:47:07.902Z,79.14
2016-12-20T11:48:09.060Z,78.18
2016-12-20T11:49:07.903Z,77.91
2016-12-20T11:50:08.882Z,78.28
2016-12-20T11:51:09.055Z,79.24
2016-12-20T11:52:08.242Z,77.95
2016-12-20T11:53:08.123Z,78.54
2016-12-20T11:54:08.495Z,78.00
2016-12-20T11:55:08.526Z,78.10
2016-12-20T11:56:08.714Z,76.61
2016-12-20T11:57:08.852Z,77.26
2016-12-20T11:58:09.035Z,77.05
2016-12-20T11:59:08.126Z,77.24
2016-12-20T12:00:08.128Z,76.46
2016-12-20T12:01:08.165Z,77.47
2016-12-20T12:02:08.194Z,77.21
2016-12-20T12:03:08.243Z,78.19
2016-12-20T12:04:08.464Z,78.51
2016-12-20T12:05:10.723Z,78.89
2016-12-20T12:06:08.769Z,78.32
2016-12-20T12:07:08.705Z,77.47
2016-12-20T12:08:08.705Z,77.31
2016-12-20T12:09:08.835Z,77.64
2016-12-20T12:10:08.714Z,77.87
2016-12-20T12:11:09.227Z,78.61
2016-12-20T12:12:08.183Z,78.53
2016-12-20T12:13:08.493Z,77.76
2016-12-20T12:14:08.532Z,78.44
2016-12-20T12:15:08.056Z,78.39
2016-12-20T12:16:09.117Z,77.74
2016-12-20T12:17:08.124Z,77.88
2016-12-20T12:18:08.535Z,77.92
2016-12-20T12:19:08.522Z,77.86
2016-12-20T12:20:08.780Z,77.38
2016-12-20T12:21:09.020Z,78.69
2016-12-20T12:22:08.205Z,78.10
2016-12-20T12:23:08.151Z,79.01
2016-12-20T12:24:08.075Z,79.19
2016-12-20T12:25:08.112Z,78.82
2016-12-20T12:26:08.491Z,78.23
2016-12-20T12:27:08.459Z,78.19
2016-12-20T12:28:08.276Z,78.03
2016-12-20T12:29:08.830Z,78.11
2016-12-20T12:30:09.011Z,79.04
2016-12-20T12:31:07.614Z,78.39
2016-12-20T12:32:08.874Z,77.15
2016-12-20T12:33:09.068Z,77.76
2016-12-20T12:34:10.493Z,77.90
2016-12-20T12:35:08.591Z,78.20
2016-12-20T12:36:08.535Z,79.10
2016-12-20T12:37:08.429Z,78.57
2016-12-20T12:38:08.742Z,78.08
2016-12-20T12:39:09.003Z,78.65
2016-12-20T12:40:08.265Z,79.29
2016-12-20T12:41:08.149Z,78.43
2016-12-20T12:42:08.465Z,78.20
2016-12-20T12:43:08.570Z,78.80
2016-12-20T12:44:10.910Z,78.76
2016-12-20T12:45:08.787Z,78.86
2016-12-20T12:46:08.941Z,78.60
2016-12-20T12:47:07.839Z,78.28
2016-12-20T12:48:08.760Z,78.76
2016-12-20T12:49:08.904Z,79.68
2016-12-20T12:50:09.128Z,78.83
2016-12-20T12:51:08.780Z,78.72
2016-12-20T12:52:08.777Z,78.59
2016-12-20T12:53:08.917Z,79.29
2016-12-20T12:54:09.232Z,79.43
2016-12-20T12:55:08.177Z,79.57
2016-12-20T12:56:08.093Z,79.04
2016-12-20T12:57:07.879Z,79.46
2016-12-20T12:58:08.973Z,78.51
2016-12-20T12:59:07.652Z,78.33
2016-12-20T13:00:08.826Z,79.25
2016-12-20T13:01:09.123Z,79.25
2016-12-20T13:02:08.239Z,78.58
2016-12-20T13:03:07.951Z,79.46
2016-12-20T13:04:07.931Z,79.75
2016-12-20T13:05:09.071Z,80.18
2016-12-20T13:06:08.202Z,80.71
2016-12-20T13:07:08.211Z,80.26
2016-12-20T13:08:08.582Z,79.93
2016-12-20T13:09:08.509Z,80.90
2016-12-20T13:10:08.581Z,79.83
2016-12-20T13:11:08.476Z,78.96
2016-12-20T13:12:08.593Z,78.74
2016-12-20T13:13:08.639Z,79.52
2016-12-20T13:14:08.760Z,79.28
2016-12-20T13:15:08.829Z,78.45
2016-12-20T13:16:09.342Z,78.62
2016-12-20T13:17:08.942Z,78.50
2016-12-20T13:18:07.755Z,78.46
2016-12-20T13:19:09.284Z,78.36
2016-12-20T13:20:08.572Z,79.32
2016-12-20T13:21:08.853Z,79.69
2016-12-20T13:22:08.911Z,78.70
2016-12-20T13:23:09.040Z,80.48
2016-12-20T13:24:08.535Z,81.21
2016-12-20T13:25:08.551Z,81.21
2016-12-20T13:26:08.759Z,81.48
2016-12-20T13:27:08.666Z,80.47
2016-12-20T13:28:07.917Z,80.45
2016-12-20T13:29:14.471Z,80.88
2016-12-20T13:30:14.334Z,80.58
2016-12-20T13:31:08.547Z,80.91
2016-12-20T13:32:08.541Z,79.56
2016-12-20T13:33:08.903Z,79.70
2016-12-20T13:34:08.735Z,80.69
2016-12-20T13:35:08.908Z,81.50
2016-12-20T13:36:09.129Z,81.66
2016-12-20T13:37:08.157Z,81.22
2016-12-20T13:38:08.126Z,81.10
2016-12-20T13:39:08.789Z,80.53
2016-12-20T13:40:08.847Z,80.46
2016-12-20T13:41:08.767Z,80.41
2016-12-20T13:42:08.886Z,80.35
2016-12-20T13:43:08.918Z,79.75
2016-12-20T13:44:08.308Z,79.70
2016-12-20T13:45:08.152Z,79.91
2016-12-20T13:46:08.076Z,79.61
2016-12-20T13:47:07.964Z,79.11
2016-12-20T13:48:07.882Z,80.12
2016-12-20T13:49:09.045Z,79.86
2016-12-20T13:50:08.243Z,80.55
2016-12-20T13:51:08.230Z,80.36
2016-12-20T13:52:08.384Z,80.97
2016-12-20T13:53:08.536Z,80.66
2016-12-20T13:54:08.472Z,79.91
2016-12-20T13:55:08.536Z,80.67
2016-12-20T13:56:08.566Z,80.97
2016-12-20T13:57:08.394Z,79.97
2016-12-20T13:58:08.586Z,80.75
2016-12-20T13:59:08.185Z,81.44
2016-12-20T14:00:10.468Z,81.80
2016-12-20T14:01:08.634Z,81.53
2016-12-20T14:02:08.486Z,80.81
2016-12-20T14:03:08.620Z,80.75
2016-12-20T14:04:08.546Z,81.54
2016-12-20T14:05:08.874Z,80.51
2016-12-20T14:06:15.297Z,80.74
2016-12-20T14:07:08.811Z,80.68
2016-12-20T14:08:08.812Z,81.13
2016-12-20T14:09:08.835Z,80.88
2016-12-20T14:10:08.863Z,80.59
2016-12-20T14:11:08.771Z,80.16
2016-12-20T14:12:08.876Z,81.52
2016-12-20T14:13:08.820Z,81.85
2016-12-20T14:14:08.962Z,82.70
2016-12-20T14:15:07.757Z,81.87
2016-12-20T14:16:08.696Z,81.57
2016-12-20T14:17:08.923Z,80.93
2016-12-20T14:18:07.902Z,81.11
2016-12-20T14:19:08.500Z,81.19
2016-12-20T14:20:08.691Z,80.76
2016-12-20T14:21:08.897Z,81.00
2016-12-20T14:22:08.694Z,80.42
2016-12-20T14:23:08.032Z,81.78
2016-12-20T14:24:08.985Z,82.25
2016-12-20T14:25:08.846Z,81.95
2016-12-20T14:26:08.889Z,81.96
2016-12-20T14:27:08.873Z,82.04
2016-12-20T14:28:09.099Z,81.76
2016-12-20T14:29:08.262Z,82.13
2016-12-20T14:30:08.651Z,82.57
2016-12-20T14:31:08.929Z,82.13
2016-12-20T14:32:08.066Z,82.01
2016-12-20T14:33:07.808Z,81.94
2016-12-20T14:34:08.919Z,82.20
2016-12-20T14:35:07.848Z,82.19
2016-12-20T14:36:07.746Z,82.07
2016-12-20T14:37:08.931Z,82.03
2016-12-20T14:38:08.304Z,82.87
2016-12-20T14:39:09.378Z,83.90
2016-12-20T14:40:08.042Z,83.22
2016-12-20T14:41:07.864Z,83.03
2016-12-20T14:42:08.264Z,81.88